Time;durP1;ratioP1;P1;durP2;ratioP2;P2;SDS_P1;SDS_P2;PMS_P1;PMS_P2;Temp;Humidity;BMP_temperature;BMP_pressure;BME280_temperature;BME280_humidity;BME280_pressure;Samples;Min_cycle;Max_cycle;Signal;HPM_P1;HPM_P2
2021/09/27 00:01:13;;;;;;;17.33;15.70;;;17.90;99.90;;;;;;5053572;28;20761;-59
2021/09/27 00:03:39;;;;;;;14.67;13.27;;;17.90;99.90;;;;;;5053749;28;20595;-59
2021/09/27 00:06:06;;;;;;;16.83;15.23;;;17.90;99.90;;;;;;5053385;28;20492;-59
2021/09/27 00:08:31;;;;;;;16.57;15.00;;;17.90;99.90;;;;;;5053376;28;20425;-58
2021/09/27 00:11:07;;;;;;;15.43;13.93;;;17.80;99.90;;;;;;5052539;28;20528;-59
2021/09/27 00:13:38;;;;;;;13.47;12.17;;;17.70;99.90;;;;;;5051749;28;20553;-58
2021/09/27 00:16:05;;;;;;;15.30;13.60;;;17.80;99.90;;;;;;5052914;28;20460;-57
2021/09/27 00:18:31;;;;;;;15.13;13.70;;;17.90;99.90;;;;;;5053420;28;20474;-59
2021/09/27 00:21:00;;;;;;;17.00;15.40;;;17.80;99.90;;;;;;5050429;28;20425;-59
2021/09/27 00:23:29;;;;;;;16.30;14.60;;;17.80;99.90;;;;;;5044300;28;20201;-58
2021/09/27 00:25:54;;;;;;;18.50;16.70;;;17.80;99.90;;;;;;5043384;28;20426;-58
2021/09/27 00:28:21;;;;;;;15.57;14.17;;;17.70;99.90;;;;;;5046729;28;21075;-55
2021/09/27 00:30:48;;;;;;;19.07;17.27;;;17.60;99.90;;;;;;5051556;28;20197;-59
2021/09/27 00:33:15;;;;;;;16.17;14.57;;;17.60;99.90;;;;;;5052951;28;20831;-59
2021/09/27 00:35:41;;;;;;;16.67;15.07;;;17.60;99.90;;;;;;5053306;28;20413;-58
2021/09/27 00:38:08;;;;;;;20.47;18.37;;;17.70;99.90;;;;;;5053136;28;20855;-59
2021/09/27 00:40:41;;;;;;;15.80;14.23;;;17.60;99.90;;;;;;5053755;28;20447;-59
2021/09/27 00:43:07;;;;;;;17.73;15.83;;;17.60;99.90;;;;;;5053369;28;20435;-58
2021/09/27 00:45:37;;;;;;;17.57;15.87;;;17.60;99.90;;;;;;5052773;28;20433;-58
2021/09/27 00:48:03;;;;;;;17.07;15.47;;;17.60;99.90;;;;;;5053330;28;20198;-59
2021/09/27 00:50:34;;;;;;;17.30;15.53;;;17.60;99.90;;;;;;5053202;28;20438;-58
2021/09/27 00:53:04;;;;;;;16.50;15.00;;;17.50;99.90;;;;;;5053100;28;20161;-58
2021/09/27 00:55:30;;;;;;;19.37;17.07;;;17.50;99.90;;;;;;5052819;28;20413;-57
2021/09/27 00:57:56;;;;;;;17.63;16.03;;;17.50;99.90;;;;;;5052711;28;20467;-59
2021/09/27 01:00:24;;;;;;;19.40;17.57;;;17.50;99.90;;;;;;5052474;28;20225;-57
2021/09/27 01:02:50;;;;;;;16.83;15.13;;;17.50;99.90;;;;;;5053109;28;20411;-57
2021/09/27 01:05:18;;;;;;;18.33;16.60;;;17.40;99.90;;;;;;5052967;28;20405;-56
2021/09/27 01:08:11;;;;;;;17.83;16.23;;;17.30;99.90;;;;;;5052979;28;20420;-57
2021/09/27 01:11:03;;;;;;;20.33;18.23;;;17.30;99.90;;;;;;5052901;28;20397;-58
2021/09/27 01:13:43;;;;;;;17.77;16.07;;;17.30;99.90;;;;;;5052782;28;20754;-57
2021/09/27 01:16:25;;;;;;;16.70;15.10;;;17.40;99.90;;;;;;5052577;28;20469;-57
2021/09/27 01:19:38;;;;;;;17.03;15.30;;;17.50;99.90;;;;;;5052666;28;20439;-57
2021/09/27 01:22:19;;;;;;;19.00;17.10;;;17.50;99.90;;;;;;4972347;28;20444;-57
2021/09/27 01:25:09;;;;;;;16.53;15.13;;;17.50;99.90;;;;;;4972277;28;20400;-58
2021/09/27 01:27:59;;;;;;;15.93;14.40;;;17.40;99.90;;;;;;5036683;28;20506;-55
2021/09/27 01:30:40;;;;;;;18.87;14.73;;;17.40;99.90;;;;;;5052142;28;20412;-58
2021/09/27 01:33:14;;;;;;;17.20;15.50;;;17.30;99.90;;;;;;5052932;28;20747;-57
2021/09/27 01:36:13;;;;;;;18.10;16.20;;;17.30;99.90;;;;;;5052747;28;20392;-58
2021/09/27 01:38:45;;;;;;;16.30;14.77;;;17.40;99.90;;;;;;5052456;28;20804;-58
2021/09/27 01:41:42;;;;;;;15.73;14.23;;;17.50;99.90;;;;;;5052667;28;20400;-58
2021/09/27 01:44:26;;;;;;;15.33;13.83;;;17.60;99.90;;;;;;5055718;28;20944;-58
2021/09/27 01:46:58;;;;;;;17.57;15.67;;;17.70;99.90;;;;;;5056318;28;20523;-58
2021/09/27 01:49:37;;;;;;;16.53;15.07;;;17.70;99.90;;;;;;5055884;28;20413;-57
2021/09/27 01:52:11;;;;;;;16.63;15.00;;;17.70;99.90;;;;;;5056182;28;20438;-57
2021/09/27 01:54:47;;;;;;;16.13;14.63;;;17.80;99.90;;;;;;5056177;28;20396;-58
2021/09/27 01:57:40;;;;;;;15.60;14.10;;;18.00;99.90;;;;;;5055710;28;20444;-57
2021/09/27 02:00:22;;;;;;;14.40;13.00;;;18.00;99.90;;;;;;5054267;28;21108;-57
2021/09/27 02:02:58;;;;;;;17.70;16.10;;;18.00;99.90;;;;;;5055669;28;20445;-53
2021/09/27 02:05:33;;;;;;;15.73;14.23;;;17.90;99.90;;;;;;5055975;28;20381;-57
2021/09/27 02:08:08;;;;;;;14.73;13.30;;;17.90;99.90;;;;;;5055840;28;20384;-57
2021/09/27 02:10:49;;;;;;;16.47;14.87;;;17.90;99.90;;;;;;5055500;28;20894;-59
2021/09/27 02:13:23;;;;;;;16.30;14.30;;;17.90;99.90;;;;;;5055795;28;20755;-57
2021/09/27 02:15:55;;;;;;;15.20;13.27;;;17.90;99.90;;;;;;5048925;28;20382;-58
2021/09/27 02:18:40;;;;;;;16.40;14.80;;;17.70;99.90;;;;;;5035712;28;20418;-57
2021/09/27 02:21:14;;;;;;;14.13;12.83;;;17.80;99.90;;;;;;5035842;28;20395;-57
2021/09/27 02:23:52;;;;;;;14.90;13.40;;;18.00;99.90;;;;;;5035744;28;20860;-58
2021/09/27 02:26:19;;;;;;;15.60;14.20;;;18.00;99.90;;;;;;5035669;28;20757;-57
2021/09/27 02:28:44;;;;;;;14.73;13.33;;;18.00;99.90;;;;;;5035242;28;20430;-58
2021/09/27 02:31:24;;;;;;;15.87;14.20;;;18.00;99.90;;;;;;5045908;28;20416;-58
2021/09/27 02:34:11;;;;;;;17.07;15.40;;;17.90;99.90;;;;;;5055453;28;20273;-57
2021/09/27 02:36:51;;;;;;;15.40;13.90;;;17.70;99.90;;;;;;5054934;28;20462;-54
2021/09/27 02:39:30;;;;;;;16.03;14.37;;;17.70;99.90;;;;;;5055001;28;20424;-58
2021/09/27 02:42:30;;;;;;;14.00;12.60;;;17.90;99.90;;;;;;5055103;28;20378;-59
2021/09/27 02:44:56;;;;;;;16.40;14.23;;;18.00;99.90;;;;;;5010281;28;20422;-59
2021/09/27 02:47:33;;;;;;;15.43;13.97;;;18.10;99.90;;;;;;5054938;28;20512;-59
2021/09/27 02:49:59;;;;;;;16.13;13.93;;;18.10;99.90;;;;;;5054863;28;20189;-58
2021/09/27 02:52:26;;;;;;;16.40;14.70;;;18.00;99.90;;;;;;5055347;28;20404;-58
2021/09/27 02:54:58;;;;;;;14.17;12.70;;;18.00;99.90;;;;;;5054029;28;20401;-58
2021/09/27 02:57:44;;;;;;;13.80;12.40;;;17.90;99.90;;;;;;5054717;28;20468;-58
2021/09/27 03:00:56;;;;;;;14.37;12.90;;;18.00;99.90;;;;;;5054254;28;20385;-58
2021/09/27 03:03:37;;;;;;;16.67;15.17;;;18.00;99.90;;;;;;5026428;28;20764;-57
2021/09/27 03:06:09;;;;;;;14.87;13.37;;;18.00;99.90;;;;;;5055172;28;20389;-55
2021/09/27 03:08:53;;;;;;;17.33;15.60;;;18.00;99.90;;;;;;5054551;28;20424;-58
2021/09/27 03:11:27;;;;;;;14.33;12.93;;;18.10;99.90;;;;;;5054814;28;20469;-57
2021/09/27 03:14:05;;;;;;;14.63;13.30;;;18.10;99.90;;;;;;5054639;28;20380;-57
2021/09/27 03:16:50;;;;;;;15.73;14.23;;;18.10;99.90;;;;;;5054642;28;20437;-58
2021/09/27 03:19:33;;;;;;;15.03;13.63;;;18.10;99.90;;;;;;5053502;28;20480;-58
2021/09/27 03:22:11;;;;;;;14.13;12.63;;;18.20;99.90;;;;;;5043510;28;20492;-58
2021/09/27 03:25:14;;;;;;;14.63;13.17;;;18.20;99.90;;;;;;5034277;28;20397;-59
2021/09/27 03:27:59;;;;;;;14.63;13.30;;;18.20;99.90;;;;;;5034118;28;20969;-58
2021/09/27 03:30:27;;;;;;;14.70;13.23;;;18.20;99.90;;;;;;5038410;28;20499;-58
2021/09/27 03:33:14;;;;;;;14.83;13.30;;;18.10;99.90;;;;;;5054092;28;20409;-58
2021/09/27 03:36:03;;;;;;;14.20;12.90;;;18.00;99.90;;;;;;5054123;28;20550;-59
2021/09/27 03:38:33;;;;;;;12.53;11.37;;;18.10;99.90;;;;;;5054002;28;20417;-58
2021/09/27 03:41:19;;;;;;;14.57;13.03;;;18.10;99.90;;;;;;5054054;28;20404;-59
2021/09/27 03:43:59;;;;;;;14.37;13.07;;;18.10;99.90;;;;;;5053807;28;20381;-58
2021/09/27 03:47:03;;;;;;;14.40;12.90;;;18.20;99.90;;;;;;5053583;28;20450;-59
2021/09/27 03:49:50;;;;;;;13.60;12.30;;;18.20;99.90;;;;;;5053799;28;20440;-56
2021/09/27 03:52:29;;;;;;;14.50;13.00;;;18.10;99.90;;;;;;5053835;28;20388;-54
2021/09/27 03:55:12;;;;;;;13.80;12.50;;;18.10;99.90;;;;;;5053780;28;20389;-58
2021/09/27 03:57:47;;;;;;;14.37;12.63;;;18.10;99.90;;;;;;5053959;28;20452;-57
2021/09/27 04:00:23;;;;;;;15.40;14.00;;;18.10;99.90;;;;;;5087317;22;20553;-61
2021/09/27 04:03:27;;;;;;;13.10;11.90;;;18.00;99.90;;;;;;5053033;28;20461;-61
2021/09/27 04:06:07;;;;;;;15.00;13.57;;;18.10;99.90;;;;;;5052771;28;20769;-61
2021/09/27 04:08:50;;;;;;;13.60;11.80;;;18.10;99.90;;;;;;5051921;28;20425;-61
2021/09/27 04:11:42;;;;;;;15.70;14.10;;;18.00;99.90;;;;;;5048497;28;20740;-61
2021/09/27 04:14:24;;;;;;;14.10;12.80;;;18.00;99.90;;;;;;5026745;28;20441;-60
2021/09/27 04:17:19;;;;;;;14.43;13.17;;;18.10;99.90;;;;;;5032474;28;20457;-61
2021/09/27 04:20:00;;;;;;;14.60;13.23;;;18.20;99.90;;;;;;5023624;28;20442;-61
2021/09/27 04:22:42;;;;;;;13.93;12.60;;;18.20;99.90;;;;;;5032902;28;20397;-61
2021/09/27 04:25:20;;;;;;;16.00;14.40;;;18.10;99.90;;;;;;5033072;28;20763;-61
2021/09/27 04:28:01;;;;;;;15.63;14.13;;;18.00;99.90;;;;;;5032871;28;20778;-61
2021/09/27 04:30:33;;;;;;;15.27;13.80;;;17.90;99.90;;;;;;5049963;28;20432;-61
2021/09/27 04:33:10;;;;;;;13.20;11.90;;;18.00;99.90;;;;;;5052537;28;20995;-61
2021/09/27 04:35:36;;;;;;;13.57;12.17;;;18.00;99.90;;;;;;5052589;28;20392;-61
2021/09/27 04:38:04;;;;;;;14.93;13.53;;;18.00;99.90;;;;;;5052584;28;20523;-61
2021/09/27 04:40:40;;;;;;;13.33;12.10;;;17.90;99.90;;;;;;5052256;28;20193;-61
2021/09/27 04:43:35;;;;;;;14.77;13.17;;;17.80;99.90;;;;;;5052992;28;20511;-61
2021/09/27 04:46:37;;;;;;;14.73;12.47;;;17.90;99.90;;;;;;5052228;28;20924;-61
2021/09/27 04:49:32;;;;;;;13.00;11.80;;;17.80;99.90;;;;;;5042698;28;20468;-61
2021/09/27 04:52:15;;;;;;;18.00;16.00;;;17.70;99.90;;;;;;5052792;28;20401;-60
2021/09/27 04:54:40;;;;;;;13.70;12.40;;;17.70;99.90;;;;;;5053165;28;20381;-61
2021/09/27 04:57:26;;;;;;;13.73;12.43;;;17.60;99.90;;;;;;5053130;28;20987;-60
2021/09/27 05:00:03;;;;;;;15.57;13.80;;;17.50;99.90;;;;;;5052317;28;20202;-61
2021/09/27 05:02:38;;;;;;;15.37;12.77;;;17.50;99.90;;;;;;5052502;28;20877;-61
2021/09/27 05:05:17;;;;;;;15.27;13.83;;;17.40;99.90;;;;;;5052540;28;20412;-60
2021/09/27 05:08:21;;;;;;;16.50;14.90;;;17.40;99.90;;;;;;5052606;28;20416;-60
2021/09/27 05:10:52;;;;;;;14.40;13.00;;;17.30;99.90;;;;;;5052597;28;20392;-60
2021/09/27 05:13:21;;;;;;;19.10;15.60;;;17.20;99.90;;;;;;5052613;28;20463;-60
2021/09/27 05:15:58;;;;;;;14.73;13.33;;;17.20;99.90;;;;;;5051878;28;20431;-60
2021/09/27 05:18:41;;;;;;;16.67;14.97;;;17.10;99.90;;;;;;5054906;28;20377;-58
2021/09/27 05:21:31;;;;;;;16.13;14.50;;;17.10;99.90;;;;;;5056451;28;20383;-60
2021/09/27 05:24:08;;;;;;;16.10;14.50;;;17.00;99.90;;;;;;5056466;28;20408;-60
2021/09/27 05:27:00;;;;;;;16.20;14.53;;;16.90;99.90;;;;;;5056086;28;20886;-59
2021/09/27 05:29:31;;;;;;;16.60;14.90;;;16.90;99.90;;;;;;5055828;28;20423;-60
2021/09/27 05:32:24;;;;;;;15.80;14.23;;;16.90;99.90;;;;;;5056207;28;20394;-60
2021/09/27 05:35:14;;;;;;;15.13;13.63;;;17.00;99.90;;;;;;5055606;28;20518;-60
2021/09/27 05:37:47;;;;;;;17.30;15.47;;;17.00;99.90;;;;;;5056214;28;20450;-60
2021/09/27 05:40:28;;;;;;;15.47;13.93;;;16.90;99.90;;;;;;5056068;28;20431;-61
2021/09/27 05:42:59;;;;;;;17.33;15.63;;;16.90;99.90;;;;;;5056165;28;20388;-60
2021/09/27 05:45:42;;;;;;;15.97;14.20;;;16.80;99.90;;;;;;5055331;28;20403;-60
2021/09/27 05:48:26;;;;;;;14.63;13.13;;;16.80;99.90;;;;;;5055617;28;20389;-59
2021/09/27 05:51:04;;;;;;;17.87;16.07;;;16.80;99.90;;;;;;5055678;28;20786;-60
2021/09/27 05:53:50;;;;;;;17.40;15.70;;;16.80;99.90;;;;;;5055888;28;20388;-61
2021/09/27 05:56:44;;;;;;;16.77;13.87;;;16.80;99.90;;;;;;5055813;28;20496;-61
2021/09/27 05:59:18;;;;;;;15.57;13.97;;;16.80;99.90;;;;;;5055342;28;20460;-59
2021/09/27 06:01:46;;;;;;;16.63;14.83;;;16.80;99.90;;;;;;5055687;28;20383;-60
2021/09/27 06:04:32;;;;;;;17.30;15.70;;;16.70;99.90;;;;;;5055538;28;20418;-59
2021/09/27 06:07:12;;;;;;;15.70;14.07;;;16.70;99.90;;;;;;5047341;28;20408;-58
2021/09/27 06:09:58;;;;;;;16.17;14.57;;;16.90;99.90;;;;;;5035510;28;20844;-60
2021/09/27 06:12:34;;;;;;;16.83;15.23;;;16.90;99.90;;;;;;5038714;28;20797;-58
2021/09/27 06:15:05;;;;;;;16.00;14.30;;;17.00;99.90;;;;;;5046113;28;20823;-59
2021/09/27 06:17:36;;;;;;;15.73;14.13;;;17.10;99.90;;;;;;5055040;28;20480;-60
2021/09/27 06:20:10;;;;;;;16.90;15.23;;;17.10;99.90;;;;;;5055346;28;20502;-59
2021/09/27 06:23:14;;;;;;;15.80;14.23;;;17.10;99.90;;;;;;5055305;28;20394;-60
2021/09/27 06:26:08;;;;;;;15.33;13.73;;;17.10;99.90;;;;;;4993457;28;20427;-60
2021/09/27 06:29:01;;;;;;;14.77;13.37;;;17.20;99.90;;;;;;4992634;28;20543;-59
2021/09/27 06:31:47;;;;;;;16.03;14.33;;;17.30;99.90;;;;;;5028810;28;20931;-60
2021/09/27 06:34:33;;;;;;;14.83;13.40;;;17.40;99.90;;;;;;5034927;28;20386;-59
2021/09/27 06:37:01;;;;;;;15.40;13.87;;;17.40;99.90;;;;;;5035147;28;20459;-60
2021/09/27 06:39:29;;;;;;;16.40;14.80;;;17.50;99.90;;;;;;5035043;28;20426;-60
2021/09/27 06:41:55;;;;;;;13.90;12.40;;;17.60;99.90;;;;;;5034720;28;20456;-60
2021/09/27 06:44:24;;;;;;;15.67;13.50;;;17.60;99.90;;;;;;5034846;28;20417;-60
2021/09/27 06:46:51;;;;;;;17.07;13.77;;;17.70;99.90;;;;;;5034774;28;20414;-60
2021/09/27 06:49:17;;;;;;;25.97;15.30;;;17.80;99.90;;;;;;5034259;28;20434;-60
2021/09/27 06:51:44;;;;;;;16.00;13.40;;;17.90;99.90;;;;;;5034211;28;20419;-60
2021/09/27 06:54:12;;;;;;;17.00;13.07;;;18.00;99.90;;;;;;5034568;28;20175;-60
2021/09/27 06:56:38;;;;;;;15.83;14.13;;;18.00;99.90;;;;;;5034113;28;20559;-60
2021/09/27 06:59:04;;;;;;;15.33;13.50;;;18.00;99.90;;;;;;5040402;28;20881;-60
2021/09/27 07:01:30;;;;;;;16.10;14.50;;;18.10;99.90;;;;;;5053827;28;20416;-59
2021/09/27 07:03:56;;;;;;;15.30;13.80;;;18.30;99.90;;;;;;5054397;28;20401;-60
2021/09/27 07:06:22;;;;;;;14.20;12.80;;;18.40;99.90;;;;;;5054178;28;20413;-60
2021/09/27 07:08:48;;;;;;;14.50;13.20;;;18.40;99.90;;;;;;5053746;28;20190;-61
2021/09/27 07:11:14;;;;;;;15.07;13.50;;;18.50;99.90;;;;;;5053467;28;20474;-60
2021/09/27 07:13:40;;;;;;;13.90;12.60;;;18.60;99.90;;;;;;5053491;28;20170;-59
2021/09/27 07:16:06;;;;;;;14.17;12.77;;;18.60;99.90;;;;;;5053283;28;20438;-60
2021/09/27 07:18:32;;;;;;;12.73;11.00;;;18.60;99.90;;;;;;5053763;28;20524;-60
2021/09/27 07:20:59;;;;;;;13.60;11.90;;;18.70;99.90;;;;;;5053952;28;20405;-60
2021/09/27 07:23:28;;;;;;;12.43;10.37;;;18.80;99.90;;;;;;5054060;28;20258;-60
2021/09/27 07:25:54;;;;;;;13.50;12.20;;;18.80;99.90;;;;;;5053846;28;20401;-60
2021/09/27 07:28:22;;;;;;;12.67;11.37;;;18.90;99.90;;;;;;5054115;28;20908;-60
2021/09/27 07:30:50;;;;;;;11.23;10.20;;;18.90;99.90;;;;;;5053966;28;20166;-60
2021/09/27 07:33:17;;;;;;;10.67;9.67;;;19.00;99.90;;;;;;5054380;28;20738;-60
2021/09/27 07:35:43;;;;;;;11.27;10.27;;;19.10;99.90;;;;;;5054464;28;20412;-60
2021/09/27 07:38:09;;;;;;;12.27;11.07;;;19.20;99.90;;;;;;5053604;28;20476;-60
2021/09/27 07:40:36;;;;;;;12.07;10.90;;;19.20;99.90;;;;;;5053458;28;20413;-60
2021/09/27 07:43:03;;;;;;;10.20;9.30;;;19.20;99.90;;;;;;5054099;28;20174;-60
2021/09/27 07:45:33;;;;;;;11.60;10.37;;;19.00;99.90;;;;;;5053396;28;20431;-60
2021/09/27 07:47:59;;;;;;;10.53;9.30;;;19.00;99.90;;;;;;5053739;28;20477;-60
2021/09/27 07:50:25;;;;;;;10.30;9.40;;;19.10;99.90;;;;;;5053453;28;20528;-59
2021/09/27 07:52:51;;;;;;;11.83;10.60;;;19.20;99.90;;;;;;5053461;28;20505;-60
2021/09/27 07:55:17;;;;;;;10.60;9.53;;;19.30;99.90;;;;;;5053175;28;20648;-60
2021/09/27 07:57:42;;;;;;;10.83;9.80;;;19.10;99.90;;;;;;5053373;28;20198;-59
2021/09/27 08:00:10;;;;;;;10.17;8.67;;;19.30;99.90;;;;;;5043143;28;20281;-60
2021/09/27 08:02:36;;;;;;;10.93;9.50;;;19.40;99.90;;;;;;5033965;28;20543;-60
2021/09/27 08:05:02;;;;;;;9.90;8.90;;;19.50;99.90;;;;;;5033596;28;20398;-60
2021/09/27 08:07:27;;;;;;;8.67;7.93;;;19.70;99.90;;;;;;5033828;28;20178;-59
2021/09/27 08:09:53;;;;;;;8.87;8.13;;;19.60;99.90;;;;;;5033130;28;20922;-58
2021/09/27 08:12:19;;;;;;;8.90;8.10;;;19.60;99.90;;;;;;5033223;28;20205;-56
2021/09/27 08:14:45;;;;;;;11.40;7.93;;;19.80;99.90;;;;;;5033425;28;20186;-60
2021/09/27 08:17:11;;;;;;;8.93;8.13;;;19.90;99.90;;;;;;5033413;28;20199;-60
2021/09/27 08:19:41;;;;;;;9.43;8.53;;;20.00;99.90;;;;;;5033111;28;20771;-60
2021/09/27 08:22:06;;;;;;;8.07;7.10;;;20.10;99.90;;;;;;5033185;28;20170;-60
2021/09/27 08:24:32;;;;;;;7.47;6.77;;;20.20;99.90;;;;;;5033065;28;20408;-60
2021/09/27 08:26:59;;;;;;;8.57;7.77;;;20.10;99.90;;;;;;5032748;28;20245;-60
2021/09/27 08:29:25;;;;;;;8.63;7.73;;;20.10;99.90;;;;;;5042161;28;20265;-60
2021/09/27 08:31:50;;;;;;;6.67;6.17;;;20.10;99.90;;;;;;5052848;28;20969;-60
2021/09/27 08:34:16;;;;;;;7.43;6.70;;;20.40;99.90;;;;;;5052969;28;20175;-58
2021/09/27 08:36:43;;;;;;;6.80;6.20;;;20.50;99.90;;;;;;5053045;28;20226;-60
2021/09/27 08:39:09;;;;;;;7.07;6.40;;;20.30;99.90;;;;;;5053139;28;20607;-60
2021/09/27 08:41:40;;;;;;;6.40;5.80;;;20.40;99.90;;;;;;5052623;28;20405;-60
2021/09/27 08:44:29;;;;;;;6.23;5.63;;;20.40;99.90;;;;;;5052615;28;20405;-61
2021/09/27 08:47:07;;;;;;;6.50;5.90;;;20.30;99.90;;;;;;5053106;28;20397;-60
2021/09/27 08:49:48;;;;;;;6.60;6.00;;;20.30;99.90;;;;;;5052649;28;20416;-60
2021/09/27 08:52:17;;;;;;;5.77;5.17;;;20.40;99.90;;;;;;5053856;28;20441;-59
2021/09/27 08:54:43;;;;;;;5.93;5.33;;;20.40;99.90;;;;;;5057193;28;20479;-59
2021/09/27 08:57:43;;;;;;;5.93;5.43;;;20.40;99.90;;;;;;5056745;28;20449;-59
2021/09/27 09:00:34;;;;;;;4.80;4.40;;;20.50;99.90;;;;;;5056250;28;20827;-59
2021/09/27 09:03:09;;;;;;;5.33;4.87;;;20.40;99.90;;;;;;5053102;28;20414;-59
2021/09/27 09:05:48;;;;;;;4.27;3.93;;;20.80;99.90;;;;;;5052869;28;20937;-57
2021/09/27 09:08:29;;;;;;;5.03;4.63;;;21.10;99.90;;;;;;5050358;28;20435;-59
2021/09/27 09:11:11;;;;;;;5.97;5.47;;;21.20;99.90;;;;;;5056300;28;20396;-58
2021/09/27 09:13:45;;;;;;;5.10;4.70;;;21.20;99.90;;;;;;5056717;28;20401;-57
2021/09/27 09:16:17;;;;;;;5.00;4.60;;;21.40;99.90;;;;;;5056559;28;20760;-59
2021/09/27 09:18:56;;;;;;;4.63;4.23;;;21.50;99.90;;;;;;5056412;28;20439;-59
2021/09/27 09:21:34;;;;;;;5.17;4.70;;;21.30;99.90;;;;;;5056087;28;20393;-59
2021/09/27 09:24:03;;;;;;;4.07;3.57;;;21.40;99.90;;;;;;5056335;28;20714;-59
2021/09/27 09:26:38;;;;;;;4.67;4.27;;;21.50;99.90;;;;;;5055402;28;20416;-59
2021/09/27 09:29:05;;;;;;;5.20;4.80;;;21.80;99.90;;;;;;5055923;28;20432;-60
2021/09/27 09:31:44;;;;;;;4.30;4.00;;;21.60;99.90;;;;;;5054724;28;20471;-59
2021/09/27 09:34:19;;;;;;;5.60;5.10;;;21.70;99.90;;;;;;5055530;28;20433;-59
2021/09/27 09:36:47;;;;;;;4.03;3.67;;;21.60;99.90;;;;;;5056158;28;20452;-60
2021/09/27 09:39:21;;;;;;;6.47;4.60;;;21.90;99.90;;;;;;5055641;28;20475;-59
2021/09/27 09:41:51;;;;;;;4.00;3.70;;;21.90;99.90;;;;;;5055419;28;20408;-59
2021/09/27 09:44:43;;;;;;;5.03;4.53;;;22.00;99.90;;;;;;5056095;28;20409;-60
2021/09/27 09:47:18;;;;;;;4.97;4.40;;;22.10;99.90;;;;;;5055789;28;20397;-59
2021/09/27 09:50:07;;;;;;;4.23;3.90;;;22.30;99.90;;;;;;5055315;28;20424;-59
2021/09/27 09:52:43;;;;;;;3.93;3.63;;;22.40;99.90;;;;;;5055544;28;20874;-59
2021/09/27 09:55:28;;;;;;;4.70;4.30;;;22.30;99.90;;;;;;5055453;28;20877;-60
2021/09/27 09:58:40;;;;;;;4.40;4.00;;;22.40;99.90;;;;;;5055126;28;20943;-60
2021/09/27 10:01:17;;;;;;;5.90;4.23;;;22.40;99.90;;;;;;5036209;28;20402;-60
2021/09/27 10:03:54;;;;;;;5.30;4.83;;;22.30;99.90;;;;;;5037387;28;20397;-61
2021/09/27 10:06:28;;;;;;;4.33;4.00;;;22.40;99.90;;;;;;5035531;28;20889;-61
2021/09/27 10:08:58;;;;;;;4.33;4.03;;;22.70;99.90;;;;;;5035516;28;20441;-60
2021/09/27 10:11:51;;;;;;;4.03;3.63;;;22.70;99.90;;;;;;5033726;28;20417;-59
2021/09/27 10:14:44;;;;;;;9.33;4.23;;;22.70;99.90;;;;;;5035270;28;20393;-60
2021/09/27 10:17:29;;;;;;;4.60;4.10;;;22.80;99.90;;;;;;5032379;28;20465;-59
2021/09/27 10:20:05;;;;;;;4.93;4.20;;;22.70;99.90;;;;;;5035107;28;20434;-60
2021/09/27 10:22:35;;;;;;;4.57;3.93;;;22.80;99.90;;;;;;5035126;28;20504;-60
2021/09/27 10:25:01;;;;;;;4.20;3.90;;;22.80;99.90;;;;;;5035188;28;20390;-60
2021/09/27 10:27:33;;;;;;;4.00;3.57;;;22.90;99.90;;;;;;5034543;28;20467;-59
2021/09/27 10:30:06;;;;;;;3.73;3.43;;;22.90;99.90;;;;;;5048665;28;20432;-59
2021/09/27 10:32:45;;;;;;;3.90;3.60;;;23.20;99.90;;;;;;5055213;28;20898;-59
2021/09/27 10:35:26;;;;;;;3.97;3.67;;;23.20;99.90;;;;;;5055438;28;20777;-60
2021/09/27 10:38:14;;;;;;;4.20;3.80;;;23.30;99.90;;;;;;5054701;28;20444;-60
2021/09/27 10:40:44;;;;;;;4.40;4.00;;;23.40;99.90;;;;;;5054772;28;20392;-60
2021/09/27 10:43:15;;;;;;;4.17;3.77;;;23.60;99.90;;;;;;5054760;28;20902;-60
2021/09/27 10:45:45;;;;;;;4.70;3.77;;;23.60;99.90;;;;;;5054218;28;20413;-60
2021/09/27 10:48:11;;;;;;;4.40;4.00;;;23.80;99.90;;;;;;5054757;28;20382;-59
2021/09/27 10:50:44;;;;;;;4.33;3.93;;;24.00;99.90;;;;;;5054571;28;20413;-59
2021/09/27 10:53:33;;;;;;;3.93;3.63;;;23.70;99.90;;;;;;5054636;28;20186;-60
2021/09/27 10:56:10;;;;;;;3.63;3.30;;;23.90;99.90;;;;;;5054122;28;20832;-60
2021/09/27 10:58:38;;;;;;;3.93;3.63;;;23.70;99.90;;;;;;5054601;28;20922;-58
2021/09/27 11:01:06;;;;;;;3.60;3.30;;;23.30;99.90;;;;;;5054049;28;20472;-60
2021/09/27 11:03:44;;;;;;;2.80;2.60;;;23.20;99.90;;;;;;5054176;28;20474;-59
2021/09/27 11:06:19;;;;;;;4.70;3.20;;;23.30;99.90;;;;;;5054463;28;20404;-60
2021/09/27 11:08:44;;;;;;;4.10;3.20;;;23.40;99.90;;;;;;5054411;28;20421;-60
2021/09/27 11:11:22;;;;;;;3.10;2.80;;;24.60;99.90;;;;;;5054117;28;20405;-60
2021/09/27 11:13:49;;;;;;;2.70;2.37;;;25.70;99.90;;;;;;5054256;28;20238;-59
2021/09/27 11:16:23;;;;;;;2.67;2.47;;;27.00;98.60;;;;;;5053040;28;20406;-61
2021/09/27 11:19:12;;;;;;;3.30;3.00;;;28.00;96.20;;;;;;5054246;28;20426;-59
2021/09/27 11:21:46;;;;;;;3.33;3.03;;;28.00;95.30;;;;;;5015051;28;20416;-60
2021/09/27 11:24:12;;;;;;;2.57;2.37;;;29.20;94.60;;;;;;5051662;28;20433;-61
2021/09/27 11:27:05;;;;;;;2.20;2.00;;;31.10;91.80;;;;;;5071785;28;20852;-60
2021/09/27 11:29:36;;;;;;;3.20;2.27;;;32.70;85.30;;;;;;5059895;28;20517;-60
2021/09/27 11:32:17;;;;;;;2.60;2.40;;;33.70;78.60;;;;;;5051953;28;20475;-59
2021/09/27 11:35:01;;;;;;;2.60;2.10;;;33.80;75.90;;;;;;5052672;28;20440;-59
2021/09/27 11:38:14;;;;;;;4.47;2.20;;;34.00;74.30;;;;;;5053573;28;20487;-63
2021/09/27 11:40:42;;;;;;;2.30;2.10;;;34.70;70.80;;;;;;5052941;28;20409;-60
2021/09/27 11:43:14;;;;;;;2.40;2.20;;;34.20;69.20;;;;;;5053321;28;20518;-60
2021/09/27 11:46:03;;;;;;;2.53;2.20;;;32.00;73.90;;;;;;5053418;28;20472;-60
2021/09/27 11:48:29;;;;;;;2.77;2.50;;;32.00;72.70;;;;;;5053685;28;20409;-57
2021/09/27 11:51:19;;;;;;;3.00;2.70;;;32.00;75.60;;;;;;5053354;28;20411;-61
2021/09/27 11:54:03;;;;;;;2.77;2.57;;;32.00;75.50;;;;;;5053235;28;20508;-61
2021/09/27 11:56:44;;;;;;;2.70;2.50;;;31.30;74.10;;;;;;5034769;28;20445;-61
2021/09/27 11:59:34;;;;;;;3.40;2.60;;;30.70;78.10;;;;;;5043466;28;20464;-60
2021/09/27 12:02:08;;;;;;;3.83;2.40;;;30.30;79.70;;;;;;5032801;28;20812;-60
2021/09/27 12:04:52;;;;;;;2.80;2.50;;;28.50;81.20;;;;;;5033037;28;20385;-60
2021/09/27 12:07:21;;;;;;;2.73;2.53;;;28.10;85.90;;;;;;5033378;28;20427;-61
2021/09/27 12:10:05;;;;;;;2.97;2.67;;;28.00;86.20;;;;;;5032724;28;20521;-60
2021/09/27 12:12:40;;;;;;;2.17;1.97;;;28.50;86.60;;;;;;5032552;28;20422;-61
2021/09/27 12:15:08;;;;;;;2.60;2.40;;;28.60;86.00;;;;;;5032864;28;20381;-60
2021/09/27 12:17:37;;;;;;;2.20;2.00;;;29.20;84.10;;;;;;5032665;28;20596;-61
2021/09/27 12:20:08;;;;;;;2.40;2.20;;;29.20;81.30;;;;;;5032221;28;20426;-61
2021/09/27 12:22:42;;;;;;;2.53;2.33;;;29.20;83.00;;;;;;5032793;28;20777;-61
2021/09/27 12:25:12;;;;;;;2.70;2.00;;;29.60;84.10;;;;;;5038309;28;20485;-60
2021/09/27 12:27:48;;;;;;;2.33;2.07;;;29.60;81.70;;;;;;5043172;28;20405;-62
2021/09/27 12:30:14;;;;;;;2.60;2.40;;;29.80;79.80;;;;;;5052272;28;20801;-60
2021/09/27 12:33:02;;;;;;;2.97;2.47;;;29.00;83.50;;;;;;5052673;28;20419;-61
2021/09/27 12:35:36;;;;;;;2.47;2.27;;;28.70;82.80;;;;;;5051763;28;20542;-61
2021/09/27 12:38:02;;;;;;;2.30;2.10;;;29.30;83.10;;;;;;5052386;28;20527;-61
2021/09/27 12:40:38;;;;;;;2.70;2.50;;;29.00;82.90;;;;;;5052683;28;20421;-61
2021/09/27 12:43:30;;;;;;;2.80;2.60;;;29.20;83.30;;;;;;5052718;28;20951;-61
2021/09/27 12:46:01;;;;;;;3.23;2.90;;;29.20;85.60;;;;;;5052219;28;20423;-61
2021/09/27 12:48:31;;;;;;;2.87;2.67;;;28.80;85.60;;;;;;5052575;28;20761;-61
2021/09/27 12:51:23;;;;;;;3.13;2.83;;;29.20;85.50;;;;;;5052314;28;20397;-62
2021/09/27 12:53:57;;;;;;;2.63;2.10;;;28.70;84.60;;;;;;5052519;28;20443;-61
2021/09/27 12:56:22;;;;;;;2.80;2.50;;;28.00;85.00;;;;;;5051979;28;20483;-61
2021/09/27 12:58:59;;;;;;;2.60;2.40;;;27.70;86.90;;;;;;5051895;28;20473;-61
2021/09/27 13:01:27;;;;;;;2.50;2.30;;;28.10;87.30;;;;;;5052032;28;20161;-61
2021/09/27 13:04:01;;;;;;;2.73;2.30;;;28.20;86.60;;;;;;5052122;28;20424;-61
2021/09/27 13:06:31;;;;;;;3.40;2.40;;;28.00;88.10;;;;;;5052180;28;20788;-61
2021/09/27 13:09:21;;;;;;;5.17;2.50;;;28.00;88.80;;;;;;5051939;28;20525;-60
2021/09/27 13:11:51;;;;;;;2.80;2.60;;;27.20;88.90;;;;;;5051861;28;20401;-60
2021/09/27 13:14:25;;;;;;;2.63;2.43;;;27.00;89.30;;;;;;5052571;28;20389;-60
2021/09/27 13:17:07;;;;;;;5.03;3.30;;;27.30;89.00;;;;;;5051922;28;20436;-60
2021/09/27 13:19:55;;;;;;;4.00;2.50;;;27.40;90.30;;;;;;5052381;28;20421;-59
2021/09/27 13:22:34;;;;;;;2.60;2.40;;;26.60;91.00;;;;;;5052105;28;20389;-60